Terminal Aerodrome Forecast
Issued by NWS

Home | Current Version | Previous Version | Graphics & Text | Print | Product List | Glossary On
Versions: 1 2 3 4 5 6 7 8 9 10 11 12 13 14 15 16 17 18 19 20 21 22 23 24 25 26 27 28 29 30
450
FTUS42 KMHX 011305 AAA
TAFISO
TAF AMD
KISO 011305Z 0113/0212 14008KT P6SM SCT009 BKN025
      TEMPO 0113/0114 BKN007
     FM011500 16009KT P6SM SCT025 BKN040
     FM011800 19012G18KT P6SM VCTS BKN040CB
     FM012200 20010KT P6SM BKN040
     FM020600 21007KT P6SM VCSH SCT007 BKN030
      AMD LTD TO CLD VIS AND WIND=

USA.gov is the U.S. government's official web portal to all federal, state and local government web resources and services.